Time;durP1;ratioP1;P1;durP2;ratioP2;P2;SDS_P1;SDS_P2;PMS_P1;PMS_P2;Temp;Humidity;BMP_temperature;BMP_pressure;BME280_temperature;BME280_humidity;BME280_pressure;Samples;Min_cycle;Max_cycle;Signal;HPM_P1;HPM_P2
2022/09/10 00:02:01;;;;;;;12.90;10.80;;;;;;;13.37;87.84;100562.25;84651;1327;22595;-74
2022/09/10 00:04:13;;;;;;;11.80;10.70;;;;;;;13.38;87.93;100560.14;84671;1329;22686;-73
2022/09/10 00:06:26;;;;;;;11.70;10.50;;;;;;;13.38;87.97;100559.96;84639;1329;24195;-72
2022/09/10 00:08:34;;;;;;;11.60;10.30;;;;;;;13.38;88.01;100555.73;84641;1329;22603;-72
2022/09/10 00:10:44;;;;;;;11.90;10.70;;;;;;;13.38;87.97;100556.63;84660;1325;22592;-72
2022/09/10 00:12:54;;;;;;;11.30;10.20;;;;;;;13.38;88.08;100558.70;84666;1329;22590;-73
2022/09/10 00:15:03;;;;;;;11.60;10.20;;;;;;;13.35;88.04;100551.31;84692;1329;22633;-72
2022/09/10 00:17:12;;;;;;;12.30;10.30;;;;;;;13.34;88.09;100548.92;84630;1329;23020;-72
2022/09/10 00:19:21;;;;;;;11.10;10.00;;;;;;;13.34;88.15;100548.94;84681;1330;26174;-74
2022/09/10 00:21:31;;;;;;;12.10;10.30;;;;;;;13.33;88.28;100548.42;84671;1329;22607;-74
2022/09/10 00:23:40;;;;;;;10.10;8.00;;;;;;;13.33;88.15;100545.11;84693;1326;24383;-73
2022/09/10 00:25:50;;;;;;;8.30;7.40;;;;;;;13.30;87.97;100535.78;84674;1329;24370;-72
2022/09/10 00:28:01;;;;;;;7.50;6.80;;;;;;;13.30;87.97;100534.05;84678;1330;22699;-73
2022/09/10 00:30:11;;;;;;;;;;;;;;;13.30;88.02;100532.30;84657;1329;22816;-72
2022/09/10 00:32:18;;;;;;;;;;;;;;;13.29;88.14;100527.23;84680;1330;22717;-72
2022/09/10 00:34:26;;;;;;;7.50;6.70;;;;;;;13.27;88.20;100524.88;84668;1328;22617;-73
2022/09/10 00:36:38;;;;;;;7.40;6.40;;;;;;;13.24;88.03;100525.04;84666;1329;25447;-74
2022/09/10 00:38:47;;;;;;;6.30;5.60;;;;;;;13.21;87.86;100522.36;84667;1329;22613;-72
2022/09/10 00:40:55;;;;;;;7.50;6.50;;;;;;;13.17;87.63;100523.22;84646;1329;22626;-72
2022/09/10 00:43:05;;;;;;;7.20;6.50;;;;;;;13.17;87.65;100522.55;84637;1330;22592;-72
2022/09/10 00:45:19;;;;;;;8.00;7.30;;;;;;;13.14;87.81;100520.92;84652;1329;24206;-74
2022/09/10 00:47:32;;;;;;;8.30;7.50;;;;;;;13.11;87.74;100519.10;84649;1328;23961;-74
2022/09/10 00:49:44;;;;;;;9.10;8.20;;;;;;;13.11;87.80;100516.48;84661;1329;22689;-70
2022/09/10 00:51:53;;;;;;;8.80;8.00;;;;;;;13.12;87.90;100516.10;84625;1328;23872;-73
2022/09/10 00:54:02;;;;;;;8.60;6.60;;;;;;;13.13;87.94;100517.95;84652;1329;22584;-74
2022/09/10 00:56:10;;;;;;;8.40;7.50;;;;;;;13.14;87.79;100519.68;84642;1327;22620;-74
2022/09/10 00:58:21;;;;;;;7.90;7.10;;;;;;;13.14;87.79;100519.34;84621;1329;22754;-74
2022/09/10 01:00:30;;;;;;;7.90;7.00;;;;;;;13.14;87.77;100522.30;84655;1329;22606;-71
2022/09/10 01:02:39;;;;;;;8.70;7.30;;;;;;;13.13;87.79;100522.54;84657;1321;22614;-71
2022/09/10 01:04:47;;;;;;;7.30;6.60;;;;;;;13.11;87.65;100516.70;84634;1330;22601;-74
2022/09/10 01:06:56;;;;;;;8.90;7.50;;;;;;;13.11;87.75;100519.66;84636;1329;23980;-74
2022/09/10 01:09:05;;;;;;;8.40;7.50;;;;;;;13.10;87.64;100523.36;84671;1330;23628;-72
2022/09/10 01:11:26;;;;;;;8.80;7.80;;;;;;;13.10;87.77;100519.17;84686;1329;25295;-72
2022/09/10 01:13:45;;;;;;;9.30;8.10;;;;;;;13.10;87.73;100517.95;84667;1330;22661;-71
2022/09/10 01:15:56;;;;;;;7.10;6.50;;;;;;;13.11;87.84;100515.30;84661;1330;22716;-72
2022/09/10 01:18:17;;;;;;;7.90;7.10;;;;;;;13.12;87.81;100512.10;84667;1330;22846;-73
2022/09/10 01:20:57;;;;;;;8.60;7.50;;;;;;;13.12;87.85;100508.78;84639;1332;22966;-73
2022/09/10 01:23:40;;;;;;;;;;;;;;;13.11;87.92;100508.98;84623;1327;22627;-75
2022/09/10 01:25:52;;;;;;;8.00;7.20;;;;;;;13.08;87.81;100507.68;84419;1332;22870;-73
2022/09/10 01:28:02;;;;;;;7.90;6.80;;;;;;;13.10;88.03;100505.16;84632;1329;22661;-74
2022/09/10 01:30:16;;;;;;;7.90;7.10;;;;;;;13.10;87.87;100503.95;84658;1330;23033;-74
2022/09/10 01:32:28;;;;;;;7.00;6.30;;;;;;;13.09;87.75;100494.85;84679;1330;24809;-74
2022/09/10 01:34:40;;;;;;;8.10;7.30;;;;;;;13.10;87.67;100493.59;84641;1329;22609;-73
2022/09/10 01:36:50;;;;;;;8.00;7.20;;;;;;;13.11;87.69;100491.13;84700;1325;22631;-73
2022/09/10 01:38:59;;;;;;;7.60;6.80;;;;;;;13.11;87.67;100488.51;84681;1329;22580;-73
2022/09/10 01:41:08;;;;;;;7.80;7.10;;;;;;;13.10;87.60;100486.23;84597;1330;22696;-73
2022/09/10 01:43:17;;;;;;;6.90;6.20;;;;;;;13.10;87.63;100487.48;84671;1329;22597;-73
2022/09/10 01:45:26;;;;;;;7.00;6.30;;;;;;;13.09;87.55;100488.23;84696;1321;22861;-72
2022/09/10 01:47:51;;;;;;;6.40;5.80;;;;;;;13.07;87.50;100487.80;84676;1330;22886;-73
2022/09/10 01:50:12;;;;;;;7.10;6.40;;;;;;;13.07;87.61;100488.34;84697;1330;22700;-73
2022/09/10 01:52:27;;;;;;;6.70;6.00;;;;;;;13.07;87.64;100486.92;84697;1330;22590;-74
2022/09/10 01:54:47;;;;;;;7.40;6.60;;;;;;;13.05;87.55;100486.52;84686;1325;22698;-72
2022/09/10 01:57:02;;;;;;;7.50;6.70;;;;;;;13.02;87.33;100483.83;84674;1329;22835;-73
2022/09/10 01:59:18;;;;;;;6.40;5.80;;;;;;;13.01;87.40;100481.42;84694;1330;25446;-73
2022/09/10 02:01:29;;;;;;;8.10;6.30;;;;;;;13.02;87.57;100478.77;84719;1330;22875;-73
2022/09/10 02:03:38;;;;;;;11.10;7.20;;;;;;;13.04;87.53;100475.67;84697;1330;22604;-73
2022/09/10 02:05:47;;;;;;;8.00;7.00;;;;;;;13.04;87.52;100471.45;84666;1325;22589;-73
2022/09/10 02:07:58;;;;;;;7.20;6.40;;;;;;;13.04;87.41;100470.58;84700;1330;25429;-73
2022/09/10 02:10:09;;;;;;;7.20;6.10;;;;;;;13.03;87.41;100469.94;84694;1329;22615;-73
2022/09/10 02:12:22;;;;;;;7.40;6.30;;;;;;;13.04;87.49;100466.36;84662;1328;22677;-74
2022/09/10 02:14:31;;;;;;;7.90;6.60;;;;;;;13.05;87.45;100463.53;84682;1329;22587;-72
2022/09/10 02:16:40;;;;;;;6.90;6.20;;;;;;;13.04;87.31;100463.93;84676;1324;23052;-73
2022/09/10 02:18:49;;;;;;;6.60;5.90;;;;;;;13.02;87.16;100463.51;84718;1329;22582;-73
2022/09/10 02:20:58;;;;;;;7.80;7.10;;;;;;;13.02;87.28;100465.27;84668;1330;22733;-74
2022/09/10 02:23:08;;;;;;;7.10;6.40;;;;;;;13.00;87.28;100462.89;84678;1332;24234;-74
2022/09/10 02:25:17;;;;;;;7.90;6.60;;;;;;;12.99;87.22;100462.60;84686;1321;22604;-72
2022/09/10 02:27:26;;;;;;;7.30;6.30;;;;;;;12.99;87.32;100460.30;84679;1332;22737;-71
2022/09/10 02:29:34;;;;;;;7.20;6.50;;;;;;;12.99;87.20;100459.63;84721;1329;22528;-72
2022/09/10 02:31:43;;;;;;;8.20;6.10;;;;;;;12.99;87.23;100459.08;84658;1329;25313;-72
2022/09/10 02:33:53;;;;;;;6.60;6.00;;;;;;;13.01;87.32;100462.70;84688;1325;22758;-70
2022/09/10 02:36:02;;;;;;;8.00;6.80;;;;;;;13.03;87.45;100459.96;84676;1324;22615;-71
2022/09/10 02:38:11;;;;;;;7.40;6.20;;;;;;;13.03;87.38;100458.02;84691;1329;22775;-72
2022/09/10 02:40:19;;;;;;;7.10;6.40;;;;;;;13.04;87.34;100452.74;84663;1330;25306;-73
2022/09/10 02:42:28;;;;;;;7.40;6.70;;;;;;;13.02;87.11;100450.17;84671;1329;24193;-72
2022/09/10 02:44:36;;;;;;;8.50;6.50;;;;;;;13.01;87.18;100447.63;84725;1329;22714;-74
2022/09/10 02:46:45;;;;;;;7.70;6.90;;;;;;;13.02;87.31;100446.38;84691;1330;22607;-74
2022/09/10 02:48:54;;;;;;;9.50;6.50;;;;;;;13.02;87.26;100443.20;84707;1328;22725;-74
2022/09/10 02:51:02;;;;;;;9.30;6.80;;;;;;;13.01;87.07;100442.36;84673;1331;22614;-72
2022/09/10 02:53:12;;;;;;;6.80;6.20;;;;;;;13.02;87.07;100443.40;84687;1329;23890;-74
2022/09/10 02:55:21;;;;;;;9.10;6.70;;;;;;;13.02;87.05;100443.40;84601;1330;22596;-74
2022/09/10 02:57:30;;;;;;;8.90;6.80;;;;;;;13.01;87.01;100442.71;84674;1330;25605;-73
2022/09/10 02:59:38;;;;;;;8.70;6.50;;;;;;;12.99;86.97;100445.95;84634;1329;26592;-74
2022/09/10 03:01:48;;;;;;;7.10;6.30;;;;;;;12.99;87.00;100439.45;84644;1330;22595;-73
2022/09/10 03:03:58;;;;;;;6.50;5.60;;;;;;;13.00;87.04;100442.04;84574;1333;22702;-74
2022/09/10 03:06:07;;;;;;;9.10;6.70;;;;;;;13.00;87.07;100438.91;84684;1329;22685;-73
2022/09/10 03:08:17;;;;;;;8.90;7.90;;;;;;;13.00;87.07;100443.30;84677;1330;22860;-73
2022/09/10 03:10:26;;;;;;;10.30;7.70;;;;;;;13.00;87.28;100442.77;84671;1327;22646;-73
2022/09/10 03:12:35;;;;;;;11.40;8.10;;;;;;;12.98;87.09;100435.83;84658;1330;24243;-72
2022/09/10 03:14:43;;;;;;;9.40;7.50;;;;;;;12.96;87.10;100430.38;84704;1327;22613;-73
2022/09/10 03:16:52;;;;;;;9.00;8.10;;;;;;;12.94;87.13;100432.52;84689;1329;22594;-74
2022/09/10 03:19:01;;;;;;;11.00;8.50;;;;;;;12.94;87.18;100426.95;84692;1329;24274;-73
2022/09/10 03:21:15;;;;;;;9.50;7.80;;;;;;;12.94;87.43;100427.48;84668;1329;22609;-72
2022/09/10 03:23:23;;;;;;;10.80;8.00;;;;;;;12.90;87.34;100426.25;84690;1330;22855;-72
2022/09/10 03:25:32;;;;;;;12.20;9.00;;;;;;;12.85;87.29;100431.19;84647;1329;24361;-74
2022/09/10 03:27:41;;;;;;;14.10;9.40;;;;;;;12.84;87.25;100436.15;84666;1329;24349;-73
2022/09/10 03:29:50;;;;;;;10.70;8.60;;;;;;;12.83;87.31;100435.65;84699;1331;22617;-73
2022/09/10 03:32:00;;;;;;;10.90;8.90;;;;;;;12.83;87.41;100431.98;84679;1330;22597;-73
2022/09/10 03:34:10;;;;;;;9.30;8.10;;;;;;;12.83;87.36;100431.46;84664;1321;22625;-73
2022/09/10 03:36:19;;;;;;;11.60;7.90;;;;;;;12.82;87.38;100434.82;84680;1329;22641;-74
2022/09/10 03:38:28;;;;;;;11.10;8.70;;;;;;;12.82;87.57;100439.06;84688;1328;23905;-73
2022/09/10 03:40:36;;;;;;;9.70;8.50;;;;;;;12.81;87.50;100440.66;84655;1329;25445;-73
2022/09/10 03:42:45;;;;;;;20.00;9.70;;;;;;;12.82;87.41;100450.08;84643;1328;22623;-73
2022/09/10 03:44:55;;;;;;;9.60;8.30;;;;;;;12.82;87.64;100447.64;84654;1329;22594;-73
2022/09/10 03:47:03;;;;;;;9.00;8.00;;;;;;;12.79;87.45;100443.57;84662;1329;25292;-73
2022/09/10 03:49:12;;;;;;;9.10;8.30;;;;;;;12.73;87.32;100437.19;84663;1328;22616;-74
2022/09/10 03:51:22;;;;;;;10.20;9.00;;;;;;;12.72;87.60;100441.59;84686;1329;23898;-74
2022/09/10 03:53:30;;;;;;;10.60;8.60;;;;;;;12.72;87.68;100445.29;84673;1330;22599;-73
2022/09/10 03:55:39;;;;;;;11.80;9.40;;;;;;;12.72;87.54;100445.27;84569;1330;22604;-74
2022/09/10 03:57:47;;;;;;;9.80;8.80;;;;;;;12.70;87.57;100442.05;84652;1328;22609;-74
2022/09/10 03:59:57;;;;;;;10.90;9.80;;;;;;;12.70;87.71;100446.09;84678;1330;22608;-71
2022/09/10 04:02:06;;;;;;;9.60;8.30;;;;;;;12.66;87.57;100450.44;84671;1330;24565;-74
2022/09/10 04:04:15;;;;;;;11.30;9.20;;;;;;;12.65;87.55;100454.67;84656;1328;24053;-73
2022/09/10 04:06:24;;;;;;;8.90;8.00;;;;;;;12.66;87.77;100458.85;84681;1330;22822;-73
2022/09/10 04:08:33;;;;;;;8.50;7.70;;;;;;;12.65;87.72;100462.56;84663;1330;22654;-73
2022/09/10 04:10:41;;;;;;;8.90;8.00;;;;;;;12.65;87.72;100463.61;84655;1328;22587;-74
2022/09/10 04:12:50;;;;;;;9.10;8.20;;;;;;;12.64;87.72;100457.52;84689;1329;25457;-73
2022/09/10 04:15:00;;;;;;;9.10;7.90;;;;;;;12.64;87.80;100452.61;84737;1330;25482;-73
2022/09/10 04:17:09;;;;;;;9.00;8.00;;;;;;;12.63;87.73;100449.55;84675;1330;22907;-73
2022/09/10 04:19:17;;;;;;;9.70;8.10;;;;;;;12.60;87.87;100450.21;84607;1329;22599;-73
2022/09/10 04:21:26;;;;;;;10.50;9.00;;;;;;;12.57;87.64;100450.00;84605;1329;22609;-73
2022/09/10 04:23:35;;;;;;;10.00;8.50;;;;;;;12.55;87.69;100449.38;84618;1330;22603;-74
2022/09/10 04:25:45;;;;;;;8.80;7.80;;;;;;;12.54;87.78;100448.36;84620;1329;22610;-74
2022/09/10 04:27:54;;;;;;;9.00;8.10;;;;;;;12.53;87.96;100444.73;84628;1329;26588;-73
2022/09/10 04:30:02;;;;;;;9.80;8.40;;;;;;;12.52;87.85;100433.44;84560;1330;22591;-72
2022/09/10 04:32:11;;;;;;;11.10;8.20;;;;;;;12.52;87.92;100425.90;84629;1329;22697;-74
2022/09/10 04:34:21;;;;;;;9.70;8.30;;;;;;;12.52;88.04;100420.66;84610;1330;22612;-73
2022/09/10 04:36:30;;;;;;;9.40;8.20;;;;;;;12.52;88.04;100418.73;84605;1329;24865;-73
2022/09/10 04:38:40;;;;;;;9.30;8.30;;;;;;;12.52;87.98;100411.39;84635;1330;22612;-73
2022/09/10 04:40:49;;;;;;;9.00;8.10;;;;;;;12.52;88.06;100415.41;84597;1333;22599;-73
2022/09/10 04:42:57;;;;;;;9.60;8.50;;;;;;;12.51;88.13;100411.44;84553;1330;24219;-73
2022/09/10 04:45:08;;;;;;;11.40;10.00;;;;;;;12.50;87.94;100411.27;84645;1329;26203;-73
2022/09/10 04:47:17;;;;;;;11.30;9.40;;;;;;;12.49;88.09;100407.52;84637;1330;22591;-72
2022/09/10 04:49:26;;;;;;;13.00;9.70;;;;;;;12.48;88.12;100404.89;84615;1330;22660;-74
2022/09/10 04:51:35;;;;;;;11.50;10.30;;;;;;;12.49;88.28;100400.16;84553;1331;22590;-74
2022/09/10 04:53:45;;;;;;;11.30;10.20;;;;;;;12.50;88.42;100395.02;84599;1330;22599;-73
2022/09/10 04:55:54;;;;;;;12.00;10.40;;;;;;;12.49;88.27;100390.16;84640;1332;22607;-73
2022/09/10 04:58:02;;;;;;;10.60;9.30;;;;;;;12.51;88.46;100392.16;84614;1329;24014;-74
2022/09/10 05:00:15;;;;;;;11.40;10.20;;;;;;;12.53;88.52;100395.58;84619;1330;22692;-74
2022/09/10 05:02:23;;;;;;;12.20;10.20;;;;;;;12.54;88.53;100397.42;84639;1330;25251;-73
2022/09/10 05:04:33;;;;;;;13.90;11.50;;;;;;;12.55;88.51;100400.36;84644;1331;22593;-74
2022/09/10 05:06:41;;;;;;;;;;;;;;;12.57;88.53;100398.73;84623;1331;23906;-73
2022/09/10 05:08:49;;;;;;;11.60;9.80;;;;;;;12.57;88.61;100397.83;84644;1329;22595;-73
2022/09/10 05:11:00;;;;;;;10.90;9.10;;;;;;;12.58;88.62;100394.84;84628;1328;24270;-73
2022/09/10 05:13:08;;;;;;;10.10;9.00;;;;;;;12.58;88.49;100390.42;84611;1330;25443;-73
2022/09/10 05:15:17;;;;;;;13.00;9.80;;;;;;;12.59;88.62;100383.02;84662;1329;24261;-73
2022/09/10 05:17:25;;;;;;;10.50;9.20;;;;;;;12.61;88.45;100374.36;84616;1329;22625;-73
2022/09/10 05:19:34;;;;;;;9.50;8.50;;;;;;;12.62;88.37;100370.33;84634;1330;22576;-73
2022/09/10 05:21:43;;;;;;;10.50;9.50;;;;;;;12.61;88.40;100371.07;84691;1329;24177;-73
2022/09/10 05:23:51;;;;;;;9.60;8.60;;;;;;;12.60;88.39;100378.26;84566;1327;22659;-73
2022/09/10 05:26:00;;;;;;;9.90;8.70;;;;;;;12.59;88.27;100384.27;84662;1329;23909;-74
2022/09/10 05:28:10;;;;;;;9.90;7.50;;;;;;;12.58;88.47;100386.39;84311;1330;508555;-74
2022/09/10 05:30:19;;;;;;;9.90;7.80;;;;;;;12.60;88.45;100392.80;84685;1328;22863;-73
2022/09/10 05:32:31;;;;;;;8.70;7.00;;;;;;;12.59;88.59;100397.39;84670;1329;22624;-73
2022/09/10 05:34:40;;;;;;;9.60;7.10;;;;;;;12.58;88.56;100397.95;84671;1329;22597;-73
2022/09/10 05:36:49;;;;;;;8.80;6.90;;;;;;;12.59;88.66;100398.44;84577;1331;24274;-74
2022/09/10 05:38:59;;;;;;;8.30;7.40;;;;;;;12.60;88.52;100399.09;84574;1329;25562;-73
2022/09/10 05:41:10;;;;;;;8.10;6.90;;;;;;;12.63;88.66;100399.86;84683;1325;22821;-74
2022/09/10 05:43:20;;;;;;;7.70;6.50;;;;;;;12.63;88.44;100393.87;84683;1329;22599;-73
2022/09/10 05:45:29;;;;;;;10.20;7.30;;;;;;;12.64;88.42;100392.05;84663;1329;22622;-73
2022/09/10 05:47:38;;;;;;;9.50;6.80;;;;;;;12.65;88.72;100396.23;84676;1330;22590;-72
2022/09/10 05:49:48;;;;;;;7.10;6.40;;;;;;;12.62;88.51;100392.33;84681;1330;22616;-73
2022/09/10 05:51:58;;;;;;;8.10;7.30;;;;;;;12.64;88.48;100392.45;84697;1330;22723;-74
2022/09/10 05:54:07;;;;;;;7.80;7.10;;;;;;;12.65;88.45;100383.46;84673;1330;25282;-75
2022/09/10 05:56:15;;;;;;;7.60;6.80;;;;;;;12.65;88.41;100370.68;84562;1332;22613;-74
2022/09/10 05:58:26;;;;;;;8.50;6.80;;;;;;;12.66;88.39;100369.94;84671;1329;22634;-75
2022/09/10 06:00:36;;;;;;;7.30;6.30;;;;;;;12.67;88.28;100363.27;84666;1328;22605;-73
2022/09/10 06:02:44;;;;;;;7.20;6.30;;;;;;;12.70;88.31;100363.98;84654;1332;22585;-74
2022/09/10 06:04:53;;;;;;;8.70;6.60;;;;;;;12.72;88.35;100367.91;84661;1330;24220;-74
2022/09/10 06:07:03;;;;;;;7.40;6.40;;;;;;;12.75;88.29;100365.13;84660;1329;24236;-74
2022/09/10 06:09:12;;;;;;;9.00;6.80;;;;;;;12.77;88.24;100360.70;84641;1325;22707;-74
2022/09/10 06:11:20;;;;;;;7.50;6.50;;;;;;;12.78;88.22;100358.69;84680;1329;22964;-73
2022/09/10 06:13:29;;;;;;;7.30;6.60;;;;;;;12.79;88.08;100358.64;84666;1329;22586;-73
2022/09/10 06:15:40;;;;;;;8.40;6.60;;;;;;;12.78;88.00;100359.03;84665;1330;22640;-73
2022/09/10 06:17:49;;;;;;;7.30;6.50;;;;;;;12.78;87.85;100359.77;84677;1325;22590;-73
2022/09/10 06:19:58;;;;;;;6.60;5.90;;;;;;;12.79;87.90;100364.25;84634;1331;22612;-72
2022/09/10 06:22:09;;;;;;;7.10;6.30;;;;;;;12.81;87.97;100370.27;84666;1330;25447;-72
2022/09/10 06:24:19;;;;;;;6.80;6.10;;;;;;;12.84;87.93;100366.83;84682;1329;23965;-74
2022/09/10 06:26:28;;;;;;;9.10;6.90;;;;;;;12.85;87.90;100368.53;84662;1330;22569;-73
2022/09/10 06:28:37;;;;;;;7.90;7.10;;;;;;;12.85;87.80;100366.06;84646;1325;23160;-73
2022/09/10 06:30:45;;;;;;;7.00;6.30;;;;;;;12.87;87.80;100365.45;84677;1330;25300;-73
2022/09/10 06:32:54;;;;;;;8.50;6.60;;;;;;;12.88;87.67;100365.79;84671;1329;22793;-72
2022/09/10 06:35:03;;;;;;;9.10;7.20;;;;;;;12.88;87.65;100361.05;84676;1330;23103;-73
2022/09/10 06:37:12;;;;;;;7.10;6.50;;;;;;;12.88;87.58;100359.48;84658;1329;22731;-72
2022/09/10 06:39:20;;;;;;;7.10;6.50;;;;;;;12.86;87.55;100356.94;84642;1330;26481;-74
2022/09/10 06:41:29;;;;;;;7.70;7.00;;;;;;;12.87;87.66;100354.55;84658;1332;23971;-73
2022/09/10 06:43:40;;;;;;;7.10;6.40;;;;;;;12.91;87.57;100350.89;84654;1329;24286;-73
2022/09/10 06:45:49;;;;;;;7.20;6.50;;;;;;;12.94;87.58;100349.21;84561;1332;23945;-73
2022/09/10 06:47:58;;;;;;;8.70;7.80;;;;;;;12.97;87.63;100345.88;84683;1330;22601;-72
2022/09/10 06:50:08;;;;;;;7.40;6.70;;;;;;;13.00;87.39;100344.88;84661;1329;22799;-73
2022/09/10 06:52:17;;;;;;;8.20;6.80;;;;;;;13.01;87.48;100343.42;84683;1330;22636;-70
2022/09/10 06:54:26;;;;;;;8.50;6.50;;;;;;;13.01;87.23;100340.95;84684;1330;22629;-73
2022/09/10 06:56:35;;;;;;;7.10;6.40;;;;;;;13.01;87.08;100338.70;84659;1329;22597;-74
2022/09/10 06:58:43;;;;;;;8.40;7.10;;;;;;;13.02;87.26;100336.91;84681;1329;22610;-73
2022/09/10 07:00:54;;;;;;;8.60;7.30;;;;;;;13.03;87.20;100336.67;84686;1329;22628;-72
2022/09/10 07:03:04;;;;;;;8.60;7.50;;;;;;;13.05;87.12;100338.14;84566;1333;24403;-73
2022/09/10 07:05:13;;;;;;;10.00;6.90;;;;;;;13.07;87.18;100338.92;84675;1329;25591;-73
2022/09/10 07:07:22;;;;;;;8.10;7.30;;;;;;;13.08;86.93;100339.55;84570;1331;22601;-74
2022/09/10 07:09:31;;;;;;;7.50;6.80;;;;;;;13.09;86.92;100340.91;84685;1328;22861;-73
2022/09/10 07:11:40;;;;;;;7.10;6.40;;;;;;;13.10;86.86;100340.52;84678;1330;22678;-73
2022/09/10 07:13:55;;;;;;;7.30;6.60;;;;;;;13.10;86.69;100337.20;84648;1330;25296;-73
2022/09/10 07:16:06;;;;;;;7.20;6.60;;;;;;;13.12;86.74;100336.27;84690;1331;25522;-73
2022/09/10 07:18:15;;;;;;;8.60;7.50;;;;;;;13.14;86.84;100338.05;84668;1329;22693;-73
2022/09/10 07:20:27;;;;;;;7.70;6.60;;;;;;;13.16;86.75;100344.25;84662;1329;22629;-73
2022/09/10 07:22:38;;;;;;;8.90;7.30;;;;;;;13.18;86.64;100345.05;84660;1328;25508;-72
2022/09/10 07:24:49;;;;;;;7.10;6.40;;;;;;;13.20;86.58;100347.58;84688;1329;22590;-70
2022/09/10 07:27:01;;;;;;;10.50;8.00;;;;;;;13.21;86.54;100348.58;84665;1325;22658;-73
2022/09/10 07:29:11;;;;;;;8.10;7.10;;;;;;;13.23;86.43;100349.94;84681;1329;22588;-73
2022/09/10 07:31:26;;;;;;;7.20;6.50;;;;;;;13.22;86.27;100356.27;84653;1330;24404;-73
2022/09/10 07:33:47;;;;;;;8.10;7.10;;;;;;;13.23;86.35;100362.55;84676;1329;23917;-72
2022/09/10 07:35:58;;;;;;;7.70;7.00;;;;;;;13.25;86.37;100370.48;84688;1325;22591;-72
2022/09/10 07:38:17;;;;;;;7.80;7.00;;;;;;;13.27;86.40;100374.60;84686;1330;22671;-72
2022/09/10 07:40:27;;;;;;;8.10;7.10;;;;;;;13.23;86.13;100378.31;84679;1330;22735;-69
2022/09/10 07:42:42;;;;;;;7.10;6.10;;;;;;;13.22;86.23;100378.02;84680;1329;22630;-73
2022/09/10 07:44:51;;;;;;;7.50;6.30;;;;;;;13.24;86.27;100375.27;84696;1329;22809;-73
2022/09/10 07:47:02;;;;;;;8.10;6.40;;;;;;;13.26;86.35;100375.19;84657;1328;24390;-73
2022/09/10 07:49:12;;;;;;;6.90;5.90;;;;;;;13.28;86.02;100378.57;84682;1325;22585;-72
2022/09/10 07:51:21;;;;;;;7.00;5.30;;;;;;;13.30;86.03;100375.15;84684;1332;22682;-73
2022/09/10 07:53:32;;;;;;;6.30;5.70;;;;;;;13.32;85.95;100373.83;84713;1329;23995;-72
2022/09/10 07:55:40;;;;;;;7.60;5.70;;;;;;;13.33;85.71;100377.77;84693;1330;25319;-72
2022/09/10 07:57:49;;;;;;;6.40;5.80;;;;;;;13.36;85.81;100376.79;84707;1328;24108;-71
2022/09/10 07:59:59;;;;;;;7.00;6.20;;;;;;;13.37;85.49;100376.91;84621;1327;22605;-72
2022/09/10 08:02:09;;;;;;;8.30;7.50;;;;;;;13.37;85.43;100377.08;84645;1328;22599;-73
2022/09/10 08:04:22;;;;;;;7.10;6.40;;;;;;;13.40;85.50;100379.73;84679;1330;26801;-72
2022/09/10 08:06:34;;;;;;;9.70;6.50;;;;;;;13.43;85.40;100377.66;84671;1329;22583;-72
2022/09/10 08:08:52;;;;;;;8.20;6.20;;;;;;;13.45;85.33;100373.71;84577;1332;22618;-71
2022/09/10 08:11:10;;;;;;;7.00;6.40;;;;;;;13.48;85.48;100374.08;84717;1329;24268;-72
2022/09/10 08:13:21;;;;;;;7.40;6.70;;;;;;;13.55;85.55;100374.45;84682;1329;22608;-74
2022/09/10 08:15:30;;;;;;;7.90;7.10;;;;;;;13.61;85.48;100375.38;84558;1332;22707;-73
2022/09/10 08:17:40;;;;;;;10.50;8.10;;;;;;;13.64;84.98;100376.05;84672;1328;22685;-73
2022/09/10 08:19:50;;;;;;;8.50;7.60;;;;;;;13.67;84.93;100378.89;84690;1329;22858;-73
2022/09/10 08:22:03;;;;;;;9.60;8.00;;;;;;;13.70;84.90;100378.58;84680;1329;22591;-74
2022/09/10 08:24:16;;;;;;;10.70;8.70;;;;;;;13.74;84.85;100378.71;84673;1329;22704;-72
2022/09/10 08:26:26;;;;;;;10.40;8.90;;;;;;;13.78;84.61;100378.02;84563;1332;22867;-73
2022/09/10 08:28:42;;;;;;;12.00;10.30;;;;;;;13.80;84.48;100373.67;84599;1330;22653;-73
2022/09/10 08:31:02;;;;;;;10.90;9.20;;;;;;;13.83;84.41;100371.57;84684;1329;22954;-73
2022/09/10 08:33:11;;;;;;;12.50;9.30;;;;;;;13.86;84.19;100371.77;84604;1331;24280;-74
2022/09/10 08:35:21;;;;;;;10.60;9.60;;;;;;;13.88;83.83;100373.09;84694;1329;22638;-73
2022/09/10 08:37:33;;;;;;;10.30;9.20;;;;;;;13.85;83.63;100373.61;84681;1329;22635;-73
2022/09/10 08:39:50;;;;;;;12.30;9.90;;;;;;;13.85;83.67;100370.42;84700;1330;22690;-73
2022/09/10 08:42:00;;;;;;;11.50;9.00;;;;;;;13.87;83.57;100369.64;84676;1332;22587;-72
2022/09/10 08:44:26;;;;;;;12.00;9.90;;;;;;;13.87;83.40;100370.16;84577;1332;22594;-72
2022/09/10 08:46:47;;;;;;;13.70;9.90;;;;;;;13.87;83.21;100370.02;84572;1335;22699;-74
2022/09/10 08:49:04;;;;;;;10.70;9.60;;;;;;;13.85;83.20;100367.47;84721;1327;22618;-73
2022/09/10 08:51:15;;;;;;;10.70;9.70;;;;;;;13.88;83.37;100366.42;84664;1329;22650;-73
2022/09/10 08:53:30;;;;;;;10.80;9.60;;;;;;;13.91;83.40;100369.77;84697;1329;22604;-73
2022/09/10 08:55:41;;;;;;;10.90;9.80;;;;;;;13.95;83.36;100370.29;84680;1330;22610;-74
2022/09/10 08:57:52;;;;;;;15.00;9.90;;;;;;;13.98;83.14;100368.92;84709;1332;22587;-73
2022/09/10 09:00:01;;;;;;;9.90;8.70;;;;;;;13.97;82.86;100369.83;84671;1330;22642;-73
2022/09/10 09:02:17;;;;;;;9.30;8.30;;;;;;;13.95;82.81;100371.51;84683;1330;22723;-73
2022/09/10 09:04:34;;;;;;;10.80;8.70;;;;;;;13.97;82.89;100369.51;84678;1329;22711;-73
2022/09/10 09:06:47;;;;;;;10.80;9.70;;;;;;;13.99;83.00;100370.77;84649;1329;22594;-73
2022/09/10 09:08:55;;;;;;;12.80;10.00;;;;;;;14.01;83.00;100371.54;84562;1331;22599;-72
2022/09/10 09:11:10;;;;;;;10.50;9.50;;;;;;;14.04;82.93;100369.62;84658;1329;22609;-73
2022/09/10 09:13:37;;;;;;;12.40;9.90;;;;;;;14.07;82.85;100372.98;84716;1330;22614;-72
2022/09/10 09:15:50;;;;;;;15.20;11.10;;;;;;;14.09;82.68;100379.39;84662;1329;25965;-72
2022/09/10 09:18:14;;;;;;;11.50;10.40;;;;;;;14.09;82.51;100382.52;84690;1330;24232;-73
2022/09/10 09:20:37;;;;;;;10.20;9.10;;;;;;;14.09;82.21;100382.52;84699;1332;23067;-74
2022/09/10 09:22:53;;;;;;;11.00;9.90;;;;;;;14.07;82.35;100378.91;84677;1332;23013;-74
2022/09/10 09:25:06;;;;;;;11.60;9.80;;;;;;;14.08;82.23;100382.77;84590;1334;22685;-75
2022/09/10 09:27:18;;;;;;;10.20;8.90;;;;;;;14.05;82.21;100389.23;84669;1329;22668;-74
2022/09/10 09:29:30;;;;;;;10.50;9.50;;;;;;;14.06;82.46;100383.91;84684;1325;22634;-72
2022/09/10 09:31:42;;;;;;;9.20;8.20;;;;;;;14.07;82.46;100384.04;84669;1330;23955;-73
2022/09/10 09:33:51;;;;;;;8.70;7.60;;;;;;;14.08;82.53;100378.89;84676;1330;22660;-73
2022/09/10 09:36:01;;;;;;;9.20;8.10;;;;;;;14.08;82.40;100376.94;84668;1329;25498;-70
2022/09/10 09:38:22;;;;;;;;;;;;;;;14.09;82.46;100373.92;84699;1325;22660;-73
2022/09/10 09:40:43;;;;;;;8.30;6.90;;;;;;;14.10;82.67;100368.81;84691;1332;22690;-72
2022/09/10 09:42:56;;;;;;;9.50;7.40;;;;;;;14.13;82.65;100361.77;84688;1329;23961;-73
2022/09/10 09:46:25;;;;;;;9.40;7.50;;;;;;;14.17;82.73;100357.55;84680;1330;22595;-73
2022/09/10 09:49:29;;;;;;;8.40;7.30;;;;;;;14.20;82.18;100362.11;84527;1335;23905;-70
2022/09/10 09:52:48;;;;;;;9.10;8.20;;;;;;;14.22;82.04;100363.06;84489;1325;22600;-71
2022/09/10 09:55:45;;;;;;;;;;;;;;;;;;;;;
2022/09/10 09:58:12;;;;;;;8.10;7.10;;;;;;;14.18;81.25;100353.96;84627;1330;22607;-72
2022/09/10 10:00:37;;;;;;;8.90;8.00;;;;;;;14.16;81.67;100357.93;84727;1331;27192;-72
2022/09/10 10:02:48;;;;;;;11.00;9.20;;;;;;;14.22;81.86;100359.36;84716;1332;23985;-71
2022/09/10 10:05:16;;;;;;;9.70;8.80;;;;;;;14.27;81.81;100355.96;84591;1334;22605;-71
2022/09/10 10:07:50;;;;;;;10.20;9.20;;;;;;;14.30;81.74;100344.41;84679;1329;23088;-71
2022/09/10 10:10:33;;;;;;;12.60;9.40;;;;;;;14.34;81.68;100342.08;84685;1332;22848;-70
2022/09/10 10:13:01;;;;;;;10.00;8.70;;;;;;;14.37;81.46;100339.23;84693;1331;22597;-71
2022/09/10 10:15:53;;;;;;;11.10;9.70;;;;;;;14.38;81.42;100343.23;84604;1333;25453;-72